Time;durP1;ratioP1;P1;durP2;ratioP2;P2;SDS_P1;SDS_P2;PMS_P1;PMS_P2;Temp;Humidity;BMP_temperature;BMP_pressure;BME280_temperature;BME280_humidity;BME280_pressure;Samples;Min_cycle;Max_cycle;Signal;HPM_P1;HPM_P2
2022/08/01 00:00:10;;;;;;;4.53;0.80;;;20.60;67.50;;;;;;2090517;28;20025;-84
2022/08/01 00:01:14;;;;;;;2.25;0.88;;;20.60;67.60;;;;;;2088520;28;20033;-84
2022/08/01 00:02:15;;;;;;;2.08;0.88;;;20.60;67.10;;;;;;2090153;28;20099;-84
2022/08/01 00:03:15;;;;;;;2.20;0.70;;;20.60;67.30;;;;;;2082210;28;20733;-85
2022/08/01 00:04:16;;;;;;;2.80;0.80;;;20.60;67.30;;;;;;2082238;28;20525;-84
2022/08/01 00:05:17;;;;;;;2.10;0.77;;;20.60;67.90;;;;;;2090390;28;20066;-84
2022/08/01 00:06:18;;;;;;;3.47;0.70;;;20.50;67.10;;;;;;2090520;28;20082;-84
2022/08/01 00:07:19;;;;;;;2.60;0.80;;;20.60;67.20;;;;;;2082323;28;20057;-84
2022/08/01 00:08:20;;;;;;;1.20;1.10;;;20.50;67.40;;;;;;2074280;28;20026;-84
2022/08/01 00:09:20;;;;;;;1.97;0.60;;;20.50;67.20;;;;;;2084624;28;20024;-84
2022/08/01 00:10:21;;;;;;;2.27;0.77;;;20.50;67.30;;;;;;2090669;28;20029;-84
2022/08/01 00:11:22;;;;;;;2.63;0.70;;;20.50;67.20;;;;;;2098709;28;20458;-84
2022/08/01 00:12:23;;;;;;;3.27;0.70;;;20.50;67.00;;;;;;2091674;28;20037;-85
2022/08/01 00:13:24;;;;;;;0.60;0.57;;;20.50;67.20;;;;;;2090500;28;20107;-84
2022/08/01 00:14:25;;;;;;;1.53;0.63;;;20.50;67.10;;;;;;2082940;28;20065;-85
2022/08/01 00:15:25;;;;;;;1.50;0.70;;;20.50;67.40;;;;;;2074881;28;20030;-84
2022/08/01 00:16:26;;;;;;;1.33;0.70;;;20.40;67.00;;;;;;2080987;28;20055;-85
2022/08/01 00:17:27;;;;;;;2.53;1.00;;;20.40;67.00;;;;;;2083495;28;20119;-85
2022/08/01 00:18:28;;;;;;;2.40;0.70;;;20.40;67.00;;;;;;2083623;28;20033;-85
2022/08/01 00:19:29;;;;;;;3.80;0.87;;;20.40;67.20;;;;;;2075626;28;20021;-85
2022/08/01 00:20:29;;;;;;;1.30;0.67;;;20.30;66.70;;;;;;2075456;28;20030;-85
2022/08/01 00:21:30;;;;;;;2.60;0.80;;;20.30;66.70;;;;;;2076474;28;20052;-84
2022/08/01 00:22:32;;;;;;;1.50;0.70;;;20.30;66.90;;;;;;2091207;28;20463;-84
2022/08/01 00:23:33;;;;;;;1.77;0.70;;;20.30;67.00;;;;;;2100001;28;20028;-84
2022/08/01 00:24:33;;;;;;;1.23;0.50;;;20.30;66.80;;;;;;2091964;28;20452;-85
2022/08/01 00:25:34;;;;;;;0.50;0.50;;;20.20;66.70;;;;;;2082049;28;20076;-85
2022/08/01 00:26:35;;;;;;;1.10;0.73;;;20.20;66.40;;;;;;2091942;28;20052;-84
2022/08/01 00:27:36;;;;;;;2.57;0.70;;;20.20;66.40;;;;;;2091942;28;20033;-85
2022/08/01 00:28:36;;;;;;;0.60;0.50;;;20.30;66.50;;;;;;2091158;28;20116;-84
2022/08/01 00:29:37;;;;;;;1.87;0.70;;;20.30;66.40;;;;;;2075549;28;20496;-84
2022/08/01 00:30:38;;;;;;;1.03;0.70;;;20.30;66.70;;;;;;2083504;28;20036;-85
2022/08/01 00:31:39;;;;;;;2.67;0.87;;;20.30;66.70;;;;;;2083592;28;20025;-85
2022/08/01 00:32:41;;;;;;;2.20;0.90;;;20.30;66.50;;;;;;2083710;28;20025;-85
2022/08/01 00:33:41;;;;;;;;;;;20.30;66.40;;;;;;2087433;28;20108;-85
2022/08/01 00:34:42;;;;;;;1.63;0.50;;;20.30;66.40;;;;;;2067421;28;20312;-85
2022/08/01 00:35:43;;;;;;;0.70;0.60;;;20.30;66.20;;;;;;2089115;28;20044;-84
2022/08/01 00:36:44;;;;;;;1.10;0.60;;;20.20;66.00;;;;;;2083897;28;20075;-84
2022/08/01 00:37:45;;;;;;;0.93;0.67;;;20.30;66.30;;;;;;2083622;28;20044;-85
2022/08/01 00:38:45;;;;;;;2.77;0.77;;;20.20;65.90;;;;;;2083501;28;20083;-85
2022/08/01 00:39:46;;;;;;;1.60;0.80;;;20.20;65.80;;;;;;2083628;28;20025;-84
2022/08/01 00:40:47;;;;;;;1.40;0.77;;;20.20;65.90;;;;;;2091666;28;20041;-84
2022/08/01 00:41:48;;;;;;;2.03;0.63;;;20.20;65.80;;;;;;2091213;28;20029;-84
2022/08/01 00:42:49;;;;;;;0.97;0.70;;;20.20;65.70;;;;;;2074771;28;20160;-85
2022/08/01 00:43:49;;;;;;;1.93;0.73;;;20.20;65.60;;;;;;2070283;28;20044;-85
2022/08/01 00:44:50;;;;;;;2.20;0.70;;;20.20;65.90;;;;;;2075377;28;20033;-85
2022/08/01 00:45:51;;;;;;;2.00;0.77;;;20.20;66.00;;;;;;2075210;28;20068;-85
2022/08/01 00:46:52;;;;;;;1.73;0.80;;;20.20;65.80;;;;;;2083478;28;20087;-84
2022/08/01 00:47:52;;;;;;;5.03;0.83;;;20.20;65.80;;;;;;2075301;28;20361;-85
2022/08/01 00:48:54;;;;;;;3.43;0.90;;;20.20;65.50;;;;;;2088287;28;20116;-84
2022/08/01 00:49:55;;;;;;;1.70;0.98;;;20.20;65.60;;;;;;2083295;28;20107;-85
2022/08/01 00:50:56;;;;;;;2.43;0.67;;;20.20;65.40;;;;;;2088887;28;20033;-84
2022/08/01 00:51:58;;;;;;;2.15;0.70;;;20.20;65.40;;;;;;2083515;28;20025;-84
2022/08/01 00:52:59;;;;;;;1.67;0.85;;;20.20;65.80;;;;;;2075317;28;20441;-85
2022/08/01 00:54:01;;;;;;;1.58;0.70;;;20.20;65.30;;;;;;2078154;28;20441;-84
2022/08/01 00:55:02;;;;;;;2.88;0.90;;;20.20;65.50;;;;;;2083472;28;20038;-85
2022/08/01 00:56:03;;;;;;;1.98;1.10;;;20.10;65.50;;;;;;2085437;28;20034;-85
2022/08/01 00:57:05;;;;;;;1.05;0.80;;;20.10;65.20;;;;;;2091694;28;20036;-85
2022/08/01 00:58:05;;;;;;;2.83;0.80;;;20.10;65.70;;;;;;2083562;28;20436;-85
2022/08/01 00:59:08;;;;;;;2.03;0.57;;;20.00;65.10;;;;;;2076564;28;20041;-84
2022/08/01 01:00:09;;;;;;;1.52;0.70;;;20.00;64.80;;;;;;2067414;28;20077;-85
2022/08/01 01:01:10;;;;;;;2.88;0.70;;;20.00;64.80;;;;;;2082088;28;20259;-84
2022/08/01 01:02:11;;;;;;;2.03;0.90;;;20.00;64.70;;;;;;2082527;28;20494;-83
2022/08/01 01:03:12;;;;;;;2.38;0.77;;;20.00;65.10;;;;;;2067271;28;20050;-84
2022/08/01 01:04:13;;;;;;;3.90;0.90;;;20.00;65.00;;;;;;2075079;28;20357;-84
2022/08/01 01:05:14;;;;;;;0.65;0.50;;;20.00;64.90;;;;;;2075144;28;20087;-84
2022/08/01 01:06:42;;;;;;;3.10;0.80;;;20.00;65.20;;;;;;2080709;28;20037;-84
2022/08/01 01:08:08;;;;;;;1.33;0.63;;;20.00;65.00;;;;;;2079413;28;20118;-84
2022/08/01 01:09:39;;;;;;;1.85;0.77;;;20.10;65.00;;;;;;2077894;28;20289;-84
2022/08/01 01:11:13;;;;;;;2.25;0.70;;;20.00;65.20;;;;;;2091372;28;20292;-84
2022/08/01 01:12:25;;;;;;;1.27;0.60;;;20.00;65.10;;;;;;2083354;28;20258;-84
2022/08/01 01:13:40;;;;;;;0.60;0.50;;;20.00;65.00;;;;;;2086356;28;20381;-85
2022/08/01 01:14:59;;;;;;;3.17;0.85;;;20.00;65.10;;;;;;2083255;28;20266;-85
2022/08/01 01:16:21;;;;;;;3.17;0.90;;;20.00;65.10;;;;;;2087467;28;20259;-85
2022/08/01 01:17:31;;;;;;;2.92;0.70;;;20.00;64.80;;;;;;2084753;28;20752;-85
2022/08/01 01:18:40;;;;;;;3.38;0.80;;;20.00;64.90;;;;;;2084665;28;20121;-85
2022/08/01 01:19:47;;;;;;;4.32;0.82;;;20.00;64.80;;;;;;2083571;28;20277;-85
2022/08/01 01:21:04;;;;;;;1.42;0.70;;;20.00;64.90;;;;;;2091295;28;20266;-85
2022/08/01 01:22:21;;;;;;;2.08;0.70;;;20.00;65.20;;;;;;2088801;28;20273;-85
2022/08/01 01:23:41;;;;;;;1.70;0.60;;;20.00;64.70;;;;;;2085527;28;20271;-85
2022/08/01 01:25:09;;;;;;;1.13;0.60;;;20.00;64.70;;;;;;2077487;28;20263;-85
2022/08/01 01:26:32;;;;;;;2.22;0.70;;;20.00;64.80;;;;;;2070552;28;20275;-84
2022/08/01 01:28:00;;;;;;;2.58;0.90;;;20.00;65.00;;;;;;2073129;28;20270;-84
2022/08/01 01:29:28;;;;;;;2.40;0.77;;;20.00;64.90;;;;;;2084910;28;20266;-84
2022/08/01 01:30:30;;;;;;;2.38;0.77;;;20.00;64.60;;;;;;2086553;28;20289;-85
2022/08/01 01:31:41;;;;;;;1.70;0.70;;;20.00;64.70;;;;;;2083049;28;20422;-84
2022/08/01 01:32:51;;;;;;;1.30;0.80;;;20.00;64.60;;;;;;2084499;28;20251;-85
2022/08/01 01:33:53;;;;;;;4.32;0.90;;;20.00;64.70;;;;;;2083122;28;20266;-85
2022/08/01 01:34:56;;;;;;;2.10;0.80;;;20.00;64.80;;;;;;2075363;28;20809;-85
2022/08/01 01:36:07;;;;;;;0.95;0.60;;;20.00;64.70;;;;;;2090512;28;20739;-85
2022/08/01 01:37:15;;;;;;;1.67;0.80;;;20.00;64.70;;;;;;2085622;28;20353;-84
2022/08/01 01:38:22;;;;;;;1.08;0.65;;;20.00;64.60;;;;;;2075993;28;20030;-85
2022/08/01 01:39:25;;;;;;;1.75;0.85;;;20.00;64.60;;;;;;2083139;28;20354;-85
2022/08/01 01:40:29;;;;;;;2.55;0.85;;;19.90;64.60;;;;;;2078199;28;20266;-84
2022/08/01 01:41:31;;;;;;;3.88;0.60;;;19.90;64.60;;;;;;2091916;28;20242;-85
2022/08/01 01:42:33;;;;;;;2.15;0.70;;;20.00;64.70;;;;;;2082375;28;20265;-84
2022/08/01 01:43:36;;;;;;;3.03;0.82;;;19.90;64.60;;;;;;2075116;28;20274;-85
2022/08/01 01:44:38;;;;;;;4.85;1.13;;;19.90;64.80;;;;;;2082942;28;20034;-85
2022/08/01 01:45:40;;;;;;;2.25;0.82;;;19.90;64.80;;;;;;2083190;28;20342;-85
2022/08/01 01:46:41;;;;;;;1.73;0.70;;;20.00;64.70;;;;;;2083141;28;20546;-85
2022/08/01 01:47:44;;;;;;;1.65;0.75;;;20.00;64.70;;;;;;2091312;28;20064;-85
2022/08/01 01:48:47;;;;;;;1.65;0.73;;;20.00;64.50;;;;;;2082088;28;20099;-84
2022/08/01 01:49:50;;;;;;;1.38;0.70;;;20.00;64.60;;;;;;2082783;28;20282;-85
2022/08/01 01:50:53;;;;;;;0.98;0.65;;;19.90;64.70;;;;;;2072219;28;20271;-84
2022/08/01 01:51:56;;;;;;;2.50;0.90;;;19.90;65.30;;;;;;2075210;28;20772;-85
2022/08/01 01:52:59;;;;;;;2.40;0.88;;;19.90;64.60;;;;;;2082742;28;20647;-84
2022/08/01 01:54:00;;;;;;;;;;;19.90;64.60;;;;;;2074601;28;21834;-85
2022/08/01 01:55:05;;;;;;;1.50;0.90;;;19.90;65.30;;;;;;2083132;28;19909;-85
2022/08/01 01:56:08;;;;;;;2.05;0.88;;;19.90;64.70;;;;;;2082195;28;20117;-85
2022/08/01 01:57:11;;;;;;;2.33;0.80;;;19.90;64.60;;;;;;2068479;28;20263;-85
2022/08/01 01:58:14;;;;;;;1.88;0.60;;;19.90;64.50;;;;;;2075258;28;20260;-85
2022/08/01 01:59:25;;;;;;;1.33;0.70;;;19.80;64.50;;;;;;2075094;28;20753;-85
2022/08/01 02:00:29;;;;;;;0.90;0.80;;;19.80;64.60;;;;;;2084034;28;20326;-85
2022/08/01 02:01:33;;;;;;;1.15;0.60;;;19.80;64.40;;;;;;2075589;28;20756;-85
2022/08/01 02:02:37;;;;;;;1.52;0.80;;;19.80;64.60;;;;;;2089451;28;20258;-84
2022/08/01 02:03:39;;;;;;;;;;;19.90;64.60;;;;;;2091967;28;20265;-85
2022/08/01 02:04:42;;;;;;;2.53;0.95;;;19.90;64.70;;;;;;2083055;28;19908;-84
2022/08/01 02:05:44;;;;;;;1.08;0.60;;;19.90;64.70;;;;;;2076131;28;20022;-84
2022/08/01 02:06:46;;;;;;;4.30;0.82;;;19.90;64.70;;;;;;2074741;28;20271;-84
2022/08/01 02:07:49;;;;;;;2.55;0.80;;;19.90;64.70;;;;;;2086021;28;20391;-85
2022/08/01 02:08:51;;;;;;;1.48;0.65;;;19.90;64.70;;;;;;2090693;28;20580;-84
2022/08/01 02:09:54;;;;;;;1.80;0.93;;;19.90;64.60;;;;;;2090857;28;20261;-84
2022/08/01 02:12:18;;;;;;;1.20;0.80;;;19.90;64.60;;;;;;2087895;28;20705;-84
2022/08/01 02:13:18;;;;;;;3.92;0.60;;;19.90;64.70;;;;;;2092289;28;20371;-85
2022/08/01 02:14:20;;;;;;;1.20;0.57;;;19.90;64.70;;;;;;2086233;28;20281;-84
2022/08/01 02:15:23;;;;;;;3.33;0.75;;;19.90;64.70;;;;;;2083683;28;20037;-84
2022/08/01 02:16:27;;;;;;;2.92;0.73;;;19.90;64.60;;;;;;2083017;28;20033;-84
2022/08/01 02:17:29;;;;;;;1.35;0.80;;;19.90;64.60;;;;;;2073261;28;20693;-85
2022/08/01 02:18:30;;;;;;;;;;;19.90;64.50;;;;;;2083376;28;20263;-84
2022/08/01 02:19:32;;;;;;;2.10;0.70;;;19.90;64.30;;;;;;2082688;28;19962;-85
2022/08/01 02:20:34;;;;;;;;;;;19.90;64.30;;;;;;2082944;28;20017;-85
2022/08/01 02:21:54;;;;;;;1.30;0.65;;;19.90;64.40;;;;;;2076676;28;19913;-85
2022/08/01 02:23:06;;;;;;;0.88;0.60;;;19.90;64.60;;;;;;2083209;28;20463;-84
2022/08/01 02:24:14;;;;;;;3.95;0.60;;;19.90;64.70;;;;;;2093808;28;20731;-85
2022/08/01 02:25:29;;;;;;;1.05;0.80;;;19.90;64.60;;;;;;2089791;28;20029;-84
2022/08/01 02:26:30;;;;;;;1.60;0.70;;;19.90;64.60;;;;;;2094790;28;20269;-85
2022/08/01 02:27:39;;;;;;;0.88;0.70;;;19.90;64.40;;;;;;2090639;28;20620;-85
2022/08/01 02:29:06;;;;;;;3.17;0.60;;;19.80;64.20;;;;;;2090003;28;20473;-84
2022/08/01 02:30:10;;;;;;;1.13;0.60;;;19.90;64.60;;;;;;2088269;28;20268;-84
2022/08/01 02:31:14;;;;;;;1.55;0.60;;;19.90;64.60;;;;;;2083015;28;20282;-84
2022/08/01 02:32:24;;;;;;;4.57;1.40;;;19.90;64.50;;;;;;2079388;28;20263;-84
2022/08/01 02:33:31;;;;;;;2.85;0.90;;;19.90;64.30;;;;;;2084155;28;20274;-84
2022/08/01 02:34:35;;;;;;;2.58;0.70;;;19.80;64.40;;;;;;2083449;28;20263;-85
2022/08/01 02:35:40;;;;;;;3.65;0.88;;;19.80;64.50;;;;;;2081711;28;20262;-84
2022/08/01 02:36:44;;;;;;;0.75;0.60;;;19.80;64.40;;;;;;2083067;28;20277;-84
2022/08/01 02:37:48;;;;;;;1.30;0.90;;;19.80;64.50;;;;;;2075166;28;20286;-85
2022/08/01 02:38:49;;;;;;;2.10;0.80;;;19.80;64.40;;;;;;2076616;28;20259;-84
2022/08/01 02:39:53;;;;;;;1.20;0.75;;;19.80;64.50;;;;;;2082745;28;20323;-84
2022/08/01 02:40:59;;;;;;;1.17;0.75;;;19.80;64.50;;;;;;2088843;28;20066;-84
2022/08/01 02:42:04;;;;;;;0.85;0.65;;;19.80;64.50;;;;;;2090544;28;20262;-84
2022/08/01 02:43:06;;;;;;;2.35;0.82;;;19.80;64.50;;;;;;2090913;28;20266;-84
2022/08/01 02:44:09;;;;;;;0.80;0.70;;;19.80;64.30;;;;;;2090735;28;20275;-85
2022/08/01 02:45:12;;;;;;;0.98;0.70;;;19.70;64.20;;;;;;2082532;28;20037;-84
2022/08/01 02:46:19;;;;;;;1.60;0.88;;;19.80;64.20;;;;;;2082018;28;20258;-84
2022/08/01 02:47:24;;;;;;;2.10;0.90;;;19.80;64.30;;;;;;2089213;28;20265;-84
2022/08/01 02:48:26;;;;;;;1.83;0.73;;;19.80;64.40;;;;;;2082636;28;20277;-84
2022/08/01 02:49:32;;;;;;;5.68;0.95;;;19.70;64.20;;;;;;2085354;28;20293;-84
2022/08/01 02:50:34;;;;;;;1.45;0.70;;;19.70;64.20;;;;;;2074917;28;20358;-84
2022/08/01 02:51:37;;;;;;;3.08;0.85;;;19.70;64.20;;;;;;2066825;28;20832;-85
2022/08/01 02:52:39;;;;;;;2.88;1.08;;;19.70;64.30;;;;;;2066590;28;20368;-84
2022/08/01 02:53:42;;;;;;;5.07;1.05;;;19.70;64.30;;;;;;2074555;28;20278;-84
2022/08/01 02:54:45;;;;;;;2.80;0.85;;;19.80;64.40;;;;;;2082777;28;20265;-84
2022/08/01 02:55:47;;;;;;;1.65;0.80;;;19.70;64.40;;;;;;2082038;28;20758;-84
2022/08/01 02:56:50;;;;;;;1.92;0.88;;;19.70;64.10;;;;;;2089151;28;20282;-84
2022/08/01 02:57:53;;;;;;;1.95;0.80;;;19.70;64.10;;;;;;2082383;28;20022;-84
2022/08/01 02:58:54;;;;;;;5.05;1.00;;;19.70;64.20;;;;;;2066511;28;20354;-85
2022/08/01 02:59:58;;;;;;;2.55;1.10;;;19.70;64.40;;;;;;2074102;28;20291;-84
2022/08/01 03:01:00;;;;;;;2.00;0.75;;;19.70;64.20;;;;;;2081139;28;20056;-84
2022/08/01 03:02:01;;;;;;;;;;;19.70;64.40;;;;;;2090446;28;20278;-84
2022/08/01 03:03:06;;;;;;;2.75;0.82;;;19.70;64.30;;;;;;2090737;28;19909;-84
2022/08/01 03:04:08;;;;;;;1.35;0.70;;;19.70;64.30;;;;;;2074689;28;20429;-83
2022/08/01 03:05:11;;;;;;;2.17;0.88;;;19.70;64.60;;;;;;2076454;28;20267;-84
2022/08/01 03:06:13;;;;;;;4.05;0.93;;;19.70;64.60;;;;;;2078767;28;20355;-84
2022/08/01 03:07:15;;;;;;;1.10;0.80;;;19.60;64.20;;;;;;2058563;28;20268;-84
2022/08/01 03:08:18;;;;;;;1.02;0.70;;;19.60;64.30;;;;;;2074601;28;20064;-84
2022/08/01 03:09:20;;;;;;;1.63;0.80;;;19.70;64.40;;;;;;2083364;28;20274;-84
2022/08/01 03:10:23;;;;;;;2.42;0.60;;;19.60;64.20;;;;;;2090699;28;20399;-84
2022/08/01 03:11:26;;;;;;;1.98;0.90;;;19.60;64.30;;;;;;2083100;28;20269;-84
2022/08/01 03:12:29;;;;;;;1.02;0.70;;;19.60;64.10;;;;;;2082632;28;20288;-84
2022/08/01 03:13:31;;;;;;;4.03;1.23;;;19.60;64.30;;;;;;2074963;28;20259;-85
2022/08/01 03:14:35;;;;;;;;;;;19.60;64.20;;;;;;2066819;28;20274;-84
2022/08/01 03:15:38;;;;;;;1.63;0.70;;;19.60;64.30;;;;;;2082061;28;20347;-84
2022/08/01 03:16:41;;;;;;;2.15;0.80;;;19.60;64.20;;;;;;2082390;28;20269;-84
2022/08/01 03:17:45;;;;;;;1.10;0.60;;;19.60;64.10;;;;;;2074911;28;20263;-84
2022/08/01 03:18:47;;;;;;;2.70;0.80;;;19.60;64.10;;;;;;2083139;28;20323;-84
2022/08/01 03:19:51;;;;;;;2.20;0.80;;;19.60;64.00;;;;;;2082243;28;20330;-84
2022/08/01 03:20:55;;;;;;;1.35;0.75;;;19.60;64.10;;;;;;2066876;28;20260;-84
2022/08/01 03:21:58;;;;;;;1.38;1.00;;;19.60;64.10;;;;;;2080933;28;20269;-84
2022/08/01 03:23:03;;;;;;;1.80;0.70;;;19.60;64.10;;;;;;2089733;28;20341;-84
2022/08/01 03:24:06;;;;;;;1.58;0.90;;;19.60;64.00;;;;;;2066658;28;20287;-84
2022/08/01 03:25:08;;;;;;;1.52;0.80;;;19.60;64.00;;;;;;2078550;28;20796;-84
2022/08/01 03:26:10;;;;;;;1.30;0.90;;;19.60;64.10;;;;;;2074559;28;20278;-84
2022/08/01 03:27:14;;;;;;;4.38;0.90;;;19.60;63.90;;;;;;2081527;28;20297;-84
2022/08/01 03:28:16;;;;;;;1.25;0.70;;;19.60;63.60;;;;;;2078528;28;20187;-84
2022/08/01 03:29:21;;;;;;;2.25;0.68;;;19.60;63.60;;;;;;2090121;28;20266;-84
2022/08/01 03:30:25;;;;;;;2.25;0.65;;;19.60;63.60;;;;;;2077386;28;20722;-84
2022/08/01 03:31:27;;;;;;;2.05;1.00;;;19.50;63.70;;;;;;2073715;28;20606;-85
2022/08/01 03:32:29;;;;;;;2.95;0.98;;;19.60;63.60;;;;;;2066668;28;20342;-84
2022/08/01 03:33:30;;;;;;;1.65;0.70;;;19.60;63.60;;;;;;2077966;28;20255;-84
2022/08/01 03:34:31;;;;;;;1.42;0.80;;;19.50;63.50;;;;;;2082358;28;20271;-84
2022/08/01 03:35:39;;;;;;;1.97;0.70;;;19.50;63.80;;;;;;2081695;28;20029;-85
2022/08/01 03:36:52;;;;;;;4.28;1.45;;;19.50;63.90;;;;;;2090227;28;20029;-85
2022/08/01 03:37:55;;;;;;;2.15;0.68;;;19.50;63.60;;;;;;2075936;28;20717;-84
2022/08/01 03:39:00;;;;;;;2.10;0.68;;;19.50;64.20;;;;;;2066498;28;20702;-84
2022/08/01 03:40:06;;;;;;;1.38;0.80;;;19.40;63.70;;;;;;2074655;28;20310;-84
2022/08/01 03:41:13;;;;;;;3.10;0.70;;;19.40;63.70;;;;;;2067495;28;20264;-84
2022/08/01 03:42:18;;;;;;;1.13;0.73;;;19.40;63.60;;;;;;2066941;28;20286;-84
2022/08/01 03:43:43;;;;;;;3.75;0.98;;;19.50;63.70;;;;;;2082707;28;20274;-84
2022/08/01 03:44:52;;;;;;;2.45;0.80;;;19.50;63.60;;;;;;2068776;28;20260;-84
2022/08/01 03:45:56;;;;;;;4.05;0.77;;;19.50;63.70;;;;;;2074512;28;20274;-84
2022/08/01 03:47:05;;;;;;;3.03;1.00;;;19.50;63.60;;;;;;2082972;28;20274;-84
2022/08/01 03:48:13;;;;;;;2.72;0.93;;;19.50;63.50;;;;;;2081200;28;20303;-84
2022/08/01 03:49:23;;;;;;;1.83;0.75;;;19.50;63.60;;;;;;2084098;28;20266;-85
2022/08/01 03:50:26;;;;;;;1.40;0.80;;;19.50;63.50;;;;;;2102050;28;20688;-84
2022/08/01 03:51:29;;;;;;;2.28;0.80;;;19.50;63.30;;;;;;2100397;28;20360;-85
2022/08/01 03:52:31;;;;;;;2.22;0.70;;;19.50;63.50;;;;;;2092431;28;20307;-85
2022/08/01 03:53:34;;;;;;;2.05;0.73;;;19.50;63.20;;;;;;2092083;28;20716;-84
2022/08/01 03:54:38;;;;;;;2.15;0.80;;;19.50;63.30;;;;;;2092635;28;20355;-84
2022/08/01 03:55:42;;;;;;;1.60;0.82;;;19.50;63.20;;;;;;2090992;28;20273;-84
2022/08/01 03:56:44;;;;;;;1.85;0.77;;;19.50;63.00;;;;;;2069020;28;20351;-85
2022/08/01 03:57:47;;;;;;;1.08;0.90;;;19.50;63.30;;;;;;2090211;28;20262;-84
2022/08/01 03:58:49;;;;;;;2.80;1.02;;;19.50;63.30;;;;;;2092232;28;20869;-84
2022/08/01 03:59:49;;;;;;;;;;;19.50;63.10;;;;;;2092467;28;20258;-84
2022/08/01 04:00:51;;;;;;;3.55;1.00;;;19.50;63.10;;;;;;2078306;28;19917;-84
2022/08/01 04:01:52;;;;;;;1.80;1.05;;;19.50;63.00;;;;;;2075129;28;20030;-84
2022/08/01 04:02:53;;;;;;;2.17;0.82;;;19.50;63.10;;;;;;2075794;28;20065;-84
2022/08/01 04:03:54;;;;;;;1.38;0.70;;;19.50;63.20;;;;;;2077387;28;20034;-84
2022/08/01 04:04:56;;;;;;;1.58;1.13;;;19.50;63.20;;;;;;2083843;28;20041;-84
2022/08/01 04:05:56;;;;;;;2.90;1.17;;;19.50;63.10;;;;;;2080182;28;20112;-84
2022/08/01 04:07:03;;;;;;;1.52;0.85;;;19.40;63.40;;;;;;2092140;28;20025;-84
2022/08/01 04:08:04;;;;;;;2.10;0.80;;;19.40;63.20;;;;;;2092715;28;20025;-84
2022/08/01 04:09:07;;;;;;;4.47;1.00;;;19.40;63.20;;;;;;2083103;28;20251;-84
2022/08/01 04:10:08;;;;;;;0.93;0.60;;;19.40;62.90;;;;;;2084286;28;20038;-84
2022/08/01 04:11:10;;;;;;;1.30;0.90;;;19.40;63.00;;;;;;2089103;28;20349;-84
2022/08/01 04:12:10;;;;;;;1.90;0.88;;;19.40;63.00;;;;;;2083810;28;20022;-84
2022/08/01 04:13:11;;;;;;;1.20;0.80;;;19.40;62.90;;;;;;2083713;28;20116;-84
2022/08/01 04:14:13;;;;;;;1.25;0.80;;;19.40;62.90;;;;;;2078330;28;20452;-84
2022/08/01 04:15:14;;;;;;;2.53;0.82;;;19.40;63.00;;;;;;2083208;28;20025;-84
2022/08/01 04:16:15;;;;;;;2.60;1.30;;;19.40;63.20;;;;;;2089069;28;20029;-85
2022/08/01 04:17:16;;;;;;;1.47;0.97;;;19.30;62.90;;;;;;2090125;28;20060;-84
2022/08/01 04:18:17;;;;;;;2.63;0.90;;;19.30;63.00;;;;;;2091530;28;20031;-84
2022/08/01 04:19:18;;;;;;;1.42;0.90;;;19.30;63.00;;;;;;2094464;28;20033;-85
2022/08/01 04:20:19;;;;;;;1.93;0.80;;;19.30;62.90;;;;;;2088555;28;20354;-84
2022/08/01 04:21:28;;;;;;;1.58;0.70;;;19.30;62.90;;;;;;2080649;28;20060;-84
2022/08/01 04:22:30;;;;;;;2.03;0.90;;;19.40;63.00;;;;;;2091300;28;20043;-84
2022/08/01 04:23:34;;;;;;;2.45;0.90;;;19.30;62.70;;;;;;2078470;28;20721;-85
2022/08/01 04:24:36;;;;;;;2.63;1.00;;;19.40;62.60;;;;;;2087572;28;20413;-83
2022/08/01 04:25:39;;;;;;;3.72;0.88;;;19.40;62.90;;;;;;2083688;28;20263;-84
2022/08/01 04:26:43;;;;;;;1.23;0.80;;;19.40;62.70;;;;;;2072896;28;20041;-84
2022/08/01 04:27:48;;;;;;;2.00;0.93;;;19.30;62.70;;;;;;2068082;28;20743;-85
2022/08/01 04:28:51;;;;;;;1.58;0.73;;;19.30;62.80;;;;;;2091222;28;20305;-84
2022/08/01 04:29:55;;;;;;;2.70;0.80;;;19.30;62.70;;;;;;2084726;28;20274;-85
2022/08/01 04:30:57;;;;;;;2.55;1.00;;;19.30;62.70;;;;;;2070755;28;20661;-85
2022/08/01 04:32:00;;;;;;;2.60;0.80;;;19.30;62.70;;;;;;2088351;28;20262;-84
2022/08/01 04:33:05;;;;;;;1.95;0.95;;;19.30;63.00;;;;;;2091831;28;20064;-84
2022/08/01 04:34:06;;;;;;;1.85;0.70;;;19.30;62.70;;;;;;2076539;28;20298;-84
2022/08/01 04:35:11;;;;;;;0.88;0.80;;;19.30;62.70;;;;;;2091771;28;20266;-84
2022/08/01 04:36:14;;;;;;;3.47;1.17;;;19.30;62.60;;;;;;2092281;28;20048;-83
2022/08/01 04:37:16;;;;;;;3.25;1.10;;;19.30;62.50;;;;;;2106597;28;20249;-84
2022/08/01 04:38:19;;;;;;;;;;;19.30;62.60;;;;;;2108941;28;20260;-84
2022/08/01 04:39:21;;;;;;;1.45;0.90;;;19.30;62.50;;;;;;2100360;28;19904;-84
2022/08/01 04:40:23;;;;;;;2.72;0.82;;;19.30;62.50;;;;;;2092093;28;20120;-84
2022/08/01 04:41:24;;;;;;;3.00;0.93;;;19.30;62.60;;;;;;2092001;28;20597;-85
2022/08/01 04:42:25;;;;;;;1.42;0.80;;;19.30;62.60;;;;;;2099323;28;20497;-84
2022/08/01 04:43:26;;;;;;;6.25;1.13;;;19.30;62.70;;;;;;2100031;28;20455;-85
2022/08/01 04:44:27;;;;;;;1.13;0.70;;;19.30;62.80;;;;;;2091725;28;20076;-84
2022/08/01 04:45:28;;;;;;;1.63;0.80;;;19.30;62.60;;;;;;2087741;28;20112;-85
2022/08/01 04:46:32;;;;;;;2.45;1.40;;;19.20;63.10;;;;;;2075421;28;20030;-84
2022/08/01 04:47:34;;;;;;;1.33;0.85;;;19.20;62.70;;;;;;2099125;28;20043;-84
2022/08/01 04:48:38;;;;;;;1.55;0.80;;;19.10;62.70;;;;;;2091127;28;20270;-84
2022/08/01 04:49:40;;;;;;;2.95;0.80;;;19.10;62.50;;;;;;2093066;28;20798;-85
2022/08/01 04:50:41;;;;;;;2.15;0.88;;;19.10;62.40;;;;;;2099817;28;20280;-85
2022/08/01 04:51:57;;;;;;;5.10;1.10;;;19.20;62.70;;;;;;2083559;28;20267;-84
2022/08/01 04:52:58;;;;;;;1.13;0.80;;;19.20;63.20;;;;;;2079239;28;20048;-84
2022/08/01 04:54:00;;;;;;;2.70;1.00;;;19.20;62.60;;;;;;2083397;28;20258;-84
2022/08/01 04:55:03;;;;;;;3.28;1.08;;;19.20;62.50;;;;;;2083693;28;20539;-85
2022/08/01 04:56:03;;;;;;;2.22;0.90;;;19.20;62.40;;;;;;2075497;28;20291;-85
2022/08/01 04:57:05;;;;;;;1.92;0.85;;;19.20;62.30;;;;;;2086326;28;20266;-84
2022/08/01 04:58:07;;;;;;;3.60;0.98;;;19.20;62.30;;;;;;2091751;28;20032;-84
2022/08/01 05:00:28;;;;;;;1.10;0.70;;;19.10;62.30;;;;;;2098475;28;20021;-84
2022/08/01 05:01:28;;;;;;;;;;;19.10;62.50;;;;;;2100435;28;20311;-84
2022/08/01 05:02:29;;;;;;;1.70;1.00;;;19.10;62.30;;;;;;2090838;28;20417;-84
2022/08/01 05:03:30;;;;;;;3.17;1.00;;;19.10;62.40;;;;;;2083454;28;20509;-84
2022/08/01 05:04:31;;;;;;;2.58;0.80;;;19.10;62.30;;;;;;2089932;28;20070;-84
2022/08/01 05:05:33;;;;;;;2.47;0.85;;;19.10;62.40;;;;;;2100083;28;20028;-84
2022/08/01 05:06:33;;;;;;;3.55;0.90;;;19.00;62.00;;;;;;2091789;28;20032;-85
2022/08/01 05:07:36;;;;;;;3.90;1.20;;;19.00;62.00;;;;;;2092132;28;20448;-84
2022/08/01 05:08:36;;;;;;;3.30;0.88;;;19.00;62.40;;;;;;2090965;28;20112;-84
2022/08/01 05:09:41;;;;;;;2.63;0.98;;;19.00;62.50;;;;;;2082120;28;20768;-84
2022/08/01 05:10:42;;;;;;;3.47;0.90;;;19.00;62.20;;;;;;2092049;28;20024;-84
2022/08/01 05:11:43;;;;;;;3.42;0.88;;;19.00;62.30;;;;;;2091658;28;20266;-84
2022/08/01 05:12:44;;;;;;;2.58;1.20;;;19.00;62.60;;;;;;2083369;28;20561;-84
2022/08/01 05:13:44;;;;;;;5.50;1.30;;;19.00;62.30;;;;;;2091662;28;20082;-84
2022/08/01 05:14:45;;;;;;;4.93;0.90;;;19.00;62.00;;;;;;2090560;28;20027;-84
2022/08/01 05:15:46;;;;;;;1.80;0.70;;;19.00;62.30;;;;;;2077764;28;20029;-84
2022/08/01 05:16:47;;;;;;;5.87;0.90;;;19.00;62.20;;;;;;2083457;28;20640;-84
2022/08/01 05:17:48;;;;;;;2.97;1.07;;;19.00;62.20;;;;;;2091356;28;20021;-84
2022/08/01 05:18:48;;;;;;;1.90;1.07;;;18.90;62.20;;;;;;2100077;28;20482;-83
2022/08/01 05:19:49;;;;;;;1.93;0.83;;;18.90;62.20;;;;;;2092908;28;20017;-84
2022/08/01 05:20:50;;;;;;;1.33;0.90;;;18.90;62.30;;;;;;2097205;28;20103;-83
2022/08/01 05:21:52;;;;;;;3.42;1.00;;;18.90;62.40;;;;;;2082598;28;20079;-84
2022/08/01 05:22:53;;;;;;;3.05;1.05;;;18.90;62.50;;;;;;2075284;28;20033;-84
2022/08/01 05:23:54;;;;;;;2.97;0.83;;;18.90;62.30;;;;;;2083313;28;20025;-84
2022/08/01 05:24:55;;;;;;;1.67;0.80;;;18.90;62.20;;;;;;2080270;28;20088;-84
2022/08/01 05:25:55;;;;;;;0.85;0.60;;;18.90;62.20;;;;;;2091608;28;20068;-84
2022/08/01 05:26:57;;;;;;;2.97;0.83;;;18.90;62.20;;;;;;2094361;28;20017;-84
2022/08/01 05:27:58;;;;;;;2.78;0.88;;;18.90;62.20;;;;;;2083292;28;20108;-84
2022/08/01 05:28:59;;;;;;;2.77;0.70;;;18.90;62.20;;;;;;2082323;28;20037;-83
2022/08/01 05:30:00;;;;;;;3.88;0.80;;;18.90;62.70;;;;;;2087237;28;20025;-84
2022/08/01 05:31:01;;;;;;;1.57;0.80;;;18.90;62.70;;;;;;2083101;28;20040;-84
2022/08/01 05:32:02;;;;;;;1.70;0.87;;;18.80;62.50;;;;;;2088469;28;20024;-84
2022/08/01 05:33:03;;;;;;;2.67;1.20;;;18.80;62.50;;;;;;2083148;28;20073;-84
2022/08/01 05:34:04;;;;;;;2.90;0.90;;;18.80;62.20;;;;;;2074837;28;20022;-84
2022/08/01 05:35:06;;;;;;;3.85;0.82;;;18.80;62.30;;;;;;2083118;28;20044;-85
2022/08/01 05:36:06;;;;;;;2.33;1.00;;;18.80;62.40;;;;;;2082459;28;20030;-84